Time;durP1;ratioP1;P1;durP2;ratioP2;P2;SDS_P1;SDS_P2;PMS_P1;PMS_P2;Temp;Humidity;BMP_temperature;BMP_pressure;BME280_temperature;BME280_humidity;BME280_pressure;Samples;Min_cycle;Max_cycle;Signal;HPM_P1;HPM_P2
2023/08/13 00:02:13;;;;;;;23.07;7.80;;;;;;;14.58;100.00;101117.31;4985224;28;20105;-79
2023/08/13 00:04:38;;;;;;;23.07;6.97;;;;;;;14.59;100.00;101097.50;4945988;28;20065;-78
2023/08/13 00:07:04;;;;;;;18.93;7.63;;;;;;;14.59;100.00;101105.56;4954375;28;20492;-77
2023/08/13 00:09:29;;;;;;;23.93;7.50;;;;;;;14.52;100.00;101112.63;4966850;28;20382;-77
2023/08/13 00:11:55;;;;;;;35.27;8.73;;;;;;;14.53;100.00;101108.91;4985102;28;20041;-78
2023/08/13 00:14:20;;;;;;;21.80;8.10;;;;;;;14.56;100.00;101113.94;4967589;28;20280;-79
2023/08/13 00:16:47;;;;;;;30.38;8.38;;;;;;;14.57;100.00;101123.69;4990093;28;20026;-79
2023/08/13 00:19:13;;;;;;;25.17;8.02;;;;;;;14.49;100.00;101121.88;4972821;28;20096;-79
2023/08/13 00:21:38;;;;;;;33.13;8.65;;;;;;;14.44;100.00;101110.81;4987990;28;20034;-79
2023/08/13 00:24:04;;;;;;;25.63;8.30;;;;;;;14.43;100.00;101119.06;4972054;28;20061;-79
2023/08/13 00:26:29;;;;;;;27.52;9.18;;;;;;;14.49;100.00;101121.03;4970101;28;20030;-80
2023/08/13 00:28:54;;;;;;;19.37;9.63;;;;;;;14.36;100.00;101114.41;4973145;28;20030;-79
2023/08/13 00:31:20;;;;;;;28.57;8.57;;;;;;;14.31;100.00;101118.66;4988292;28;20069;-79
2023/08/13 00:33:45;;;;;;;25.87;9.23;;;;;;;14.19;100.00;101106.63;4972391;28;20104;-78
2023/08/13 00:36:11;;;;;;;33.37;12.13;;;;;;;14.30;100.00;101111.59;4988123;28;20072;-79
2023/08/13 00:38:36;;;;;;;33.30;12.00;;;;;;;14.38;100.00;101124.16;4971335;28;20390;-79
2023/08/13 00:41:01;;;;;;;33.30;10.93;;;;;;;14.44;100.00;101123.41;4972008;28;20034;-78
2023/08/13 00:43:27;;;;;;;26.00;12.13;;;;;;;14.47;100.00;101133.78;4985658;28;20055;-78
2023/08/13 00:45:52;;;;;;;34.73;12.40;;;;;;;14.48;100.00;101130.13;4988387;28;20477;-79
2023/08/13 00:48:18;;;;;;;34.22;13.15;;;;;;;14.47;100.00;101139.16;4971719;28;20038;-79
2023/08/13 00:50:45;;;;;;;30.17;12.80;;;;;;;14.43;100.00;101136.03;4960776;28;20252;-78
2023/08/13 00:53:11;;;;;;;32.67;11.85;;;;;;;14.43;100.00;101132.50;4990212;28;20039;-79
2023/08/13 00:55:36;;;;;;;31.65;11.52;;;;;;;14.30;100.00;101133.06;4971864;28;20446;-79
2023/08/13 00:58:02;;;;;;;33.05;12.07;;;;;;;14.36;100.00;101145.81;4973522;28;20035;-78
2023/08/13 01:00:30;;;;;;;32.92;12.13;;;;;;;14.30;100.00;101144.66;5005657;28;20485;-78
2023/08/13 01:02:56;;;;;;;42.35;13.00;;;;;;;14.28;100.00;101144.00;4964152;28;20063;-78
2023/08/13 01:05:42;;;;;;;26.00;11.25;;;;;;;14.23;100.00;101138.31;4983985;28;20026;-79
2023/08/13 01:08:15;;;;;;;22.27;10.20;;;;;;;14.19;100.00;101137.03;4951494;28;20038;-78
2023/08/13 01:10:43;;;;;;;28.63;12.05;;;;;;;14.11;100.00;101132.50;4988364;28;20027;-79
2023/08/13 01:13:20;;;;;;;34.45;11.68;;;;;;;14.05;100.00;101129.72;4988582;28;20060;-77
2023/08/13 01:15:46;;;;;;;34.53;13.43;;;;;;;14.07;100.00;101133.03;4943891;28;20065;-79
2023/08/13 01:18:13;;;;;;;31.35;12.80;;;;;;;14.03;100.00;101129.88;4972350;28;20428;-79
2023/08/13 01:20:41;;;;;;;36.13;11.85;;;;;;;14.01;100.00;101133.75;4985209;28;20066;-79
2023/08/13 01:23:07;;;;;;;36.63;11.98;;;;;;;14.04;100.00;101138.75;4970913;28;20029;-79
2023/08/13 01:25:33;;;;;;;26.85;10.82;;;;;;;14.07;100.00;101139.25;4970555;28;20090;-78
2023/08/13 01:28:28;;;;;;;31.65;12.10;;;;;;;14.09;100.00;101144.44;4989914;28;20492;-77
2023/08/13 01:30:57;;;;;;;46.25;14.95;;;;;;;13.98;100.00;101131.41;4974996;28;20034;-79
2023/08/13 01:33:28;;;;;;;27.55;11.45;;;;;;;13.93;100.00;101143.53;4986390;28;20042;-78
2023/08/13 01:36:00;;;;;;;39.83;13.20;;;;;;;13.84;100.00;101144.56;4947732;28;20035;-78
2023/08/13 01:38:26;;;;;;;41.63;13.70;;;;;;;13.79;100.00;101143.41;4955596;28;20038;-79
2023/08/13 01:40:51;;;;;;;25.08;9.70;;;;;;;13.75;100.00;101150.97;4977023;28;20025;-79
2023/08/13 01:43:17;;;;;;;33.60;12.40;;;;;;;13.75;100.00;101150.97;4986523;28;20038;-78
2023/08/13 01:45:43;;;;;;;37.08;12.65;;;;;;;13.82;100.00;101162.69;4955308;28;20113;-78
2023/08/13 01:48:08;;;;;;;23.75;10.05;;;;;;;13.71;100.00;101155.00;4967528;28;20434;-75
2023/08/13 01:50:37;;;;;;;44.75;13.20;;;;;;;13.85;100.00;101159.66;4967611;28;20034;-75
2023/08/13 01:53:02;;;;;;;31.20;11.45;;;;;;;13.95;100.00;101175.53;4983307;28;20109;-76
2023/08/13 01:55:28;;;;;;;18.95;9.02;;;;;;;13.90;100.00;101167.19;4981401;28;20489;-77
2023/08/13 01:57:53;;;;;;;24.67;10.20;;;;;;;13.78;100.00;101160.53;4978691;28;20113;-76
2023/08/13 02:00:18;;;;;;;37.70;12.97;;;;;;;13.92;100.00;101168.69;4985124;28;20026;-75
2023/08/13 02:02:44;;;;;;;33.53;11.93;;;;;;;13.92;100.00;101166.00;4952926;28;20077;-75
2023/08/13 02:05:09;;;;;;;33.80;11.97;;;;;;;13.82;100.00;101157.31;4983969;28;20022;-75
2023/08/13 02:07:34;;;;;;;29.33;11.97;;;;;;;13.74;100.00;101165.38;4965107;28;20125;-75
2023/08/13 02:10:00;;;;;;;36.43;12.17;;;;;;;13.80;100.00;101159.34;4970224;28;20634;-79
2023/08/13 02:12:25;;;;;;;33.27;11.60;;;;;;;13.93;100.00;101172.22;4984245;28;20035;-78
2023/08/13 02:14:51;;;;;;;36.33;11.87;;;;;;;13.91;100.00;101172.38;4952576;28;20037;-77
2023/08/13 02:17:16;;;;;;;34.13;12.23;;;;;;;13.98;100.00;101166.28;4953390;28;20035;-79
2023/08/13 02:19:41;;;;;;;37.67;14.03;;;;;;;13.98;100.00;101166.28;4988567;28;20033;-78
2023/08/13 02:22:07;;;;;;;37.47;13.95;;;;;;;13.89;100.00;101169.03;4984157;28;20031;-77
2023/08/13 02:24:32;;;;;;;41.50;15.20;;;;;;;13.85;100.00;101170.38;4989296;28;20543;-79
2023/08/13 02:26:58;;;;;;;44.10;15.57;;;;;;;13.80;100.00;101169.25;4991168;28;20278;-79
2023/08/13 02:29:23;;;;;;;37.30;13.65;;;;;;;13.64;100.00;101160.22;4989040;28;20060;-78
2023/08/13 02:31:49;;;;;;;55.00;17.17;;;;;;;13.65;100.00;101169.97;4961706;28;20039;-77
2023/08/13 02:34:14;;;;;;;36.70;14.43;;;;;;;13.62;100.00;101166.78;4979468;28;20078;-77
2023/08/13 02:36:39;;;;;;;46.63;17.70;;;;;;;13.61;100.00;101170.47;4997084;28;20038;-78
2023/08/13 02:39:05;;;;;;;43.60;16.03;;;;;;;13.56;100.00;101179.03;4989578;28;20030;-79
2023/08/13 02:41:30;;;;;;;38.87;15.20;;;;;;;13.59;100.00;101188.59;4974066;28;20034;-78
2023/08/13 02:43:56;;;;;;;50.80;17.90;;;;;;;13.53;100.00;101184.72;4989248;28;20073;-78
2023/08/13 02:46:23;;;;;;;41.67;15.95;;;;;;;13.54;100.00;101190.94;4965487;28;20030;-78
2023/08/13 02:48:53;;;;;;;46.60;17.38;;;;;;;13.49;100.00;101186.09;4973830;28;20322;-77
2023/08/13 02:51:20;;;;;;;50.80;18.27;;;;;;;13.42;100.00;101183.25;4989127;28;20481;-77
2023/08/13 02:53:45;;;;;;;54.15;18.85;;;;;;;13.41;100.00;101194.97;4972725;28;20026;-78
2023/08/13 02:56:11;;;;;;;44.67;19.53;;;;;;;13.42;100.00;101187.78;4972595;28;20050;-79
2023/08/13 02:58:36;;;;;;;62.10;19.97;;;;;;;13.39;100.00;101191.66;4971909;28;20281;-78
2023/08/13 03:01:02;;;;;;;58.83;18.17;;;;;;;13.43;100.00;101201.00;4983122;28;20042;-78
2023/08/13 03:03:27;;;;;;;61.05;20.00;;;;;;;13.45;100.00;101201.69;4962704;28;20031;-78
2023/08/13 03:05:53;;;;;;;45.70;18.73;;;;;;;13.41;100.00;101197.66;4973364;28;20431;-79
2023/08/13 03:08:19;;;;;;;46.92;18.55;;;;;;;13.39;100.00;101199.69;4957682;28;20070;-77
2023/08/13 03:10:45;;;;;;;48.75;17.98;;;;;;;13.38;100.00;101197.19;4963078;28;20058;-77
2023/08/13 03:13:10;;;;;;;45.00;17.15;;;;;;;13.34;100.00;101201.19;4972812;28;20027;-78
2023/08/13 03:15:39;;;;;;;52.45;19.40;;;;;;;13.30;100.00;101200.72;4986497;28;20041;-78
2023/08/13 03:18:05;;;;;;;48.95;18.80;;;;;;;13.32;100.00;101203.22;5004517;28;20117;-79
2023/08/13 03:20:33;;;;;;;52.22;19.15;;;;;;;13.29;100.00;101193.66;5003467;28;20035;-78
2023/08/13 03:22:59;;;;;;;49.42;19.15;;;;;;;13.28;100.00;101200.88;4966409;28;20069;-77
2023/08/13 03:25:25;;;;;;;42.92;17.67;;;;;;;13.28;100.00;101200.03;4953999;28;20585;-78
2023/08/13 03:27:50;;;;;;;31.33;15.57;;;;;;;13.24;100.00;101190.63;4988322;28;20102;-78
2023/08/13 03:30:17;;;;;;;38.47;16.60;;;;;;;13.20;100.00;101198.16;4979382;28;20312;-78
2023/08/13 03:32:43;;;;;;;38.05;17.52;;;;;;;13.22;100.00;101192.63;4969577;28;20022;-77
2023/08/13 03:35:11;;;;;;;36.67;15.93;;;;;;;13.24;100.00;101199.50;4987500;28;20062;-78
2023/08/13 03:37:37;;;;;;;49.73;18.00;;;;;;;13.21;100.00;101197.16;4962010;28;20397;-77
2023/08/13 03:40:02;;;;;;;44.80;18.50;;;;;;;13.23;100.00;101197.84;4970749;28;20285;-78
2023/08/13 03:42:28;;;;;;;46.92;17.67;;;;;;;13.23;100.00;101195.16;4986998;28;20029;-78
2023/08/13 03:44:54;;;;;;;39.13;15.80;;;;;;;13.22;100.00;101208.72;4987715;28;20069;-78
2023/08/13 03:47:20;;;;;;;37.85;15.50;;;;;;;13.24;100.00;101206.72;4966710;28;20030;-77
2023/08/13 03:49:46;;;;;;;42.40;16.17;;;;;;;13.20;100.00;101206.19;4983088;28;20043;-76
2023/08/13 03:52:11;;;;;;;30.70;14.43;;;;;;;13.26;100.00;101213.56;4992216;28;20038;-77
2023/08/13 03:54:37;;;;;;;29.65;14.65;;;;;;;13.19;100.00;101198.34;4985223;28;20121;-76
2023/08/13 03:57:02;;;;;;;28.60;13.73;;;;;;;13.25;100.00;101213.75;4986670;28;20040;-77
2023/08/13 03:59:28;;;;;;;30.17;14.13;;;;;;;13.24;100.00;101214.75;4961106;28;20031;-77
2023/08/13 04:01:53;;;;;;;29.70;13.47;;;;;;;13.22;100.00;101214.91;4982112;28;20058;-76
2023/08/13 04:04:19;;;;;;;23.57;12.83;;;;;;;13.19;100.00;101204.53;4967578;28;20034;-75
2023/08/13 04:06:45;;;;;;;31.57;13.47;;;;;;;13.20;100.00;101206.19;4953934;28;20050;-75
2023/08/13 04:09:10;;;;;;;27.80;13.07;;;;;;;13.15;100.00;101207.72;4967847;28;20031;-76
2023/08/13 04:11:36;;;;;;;30.93;14.50;;;;;;;13.17;100.00;101206.53;4984342;28;20501;-77
2023/08/13 04:14:01;;;;;;;24.87;12.17;;;;;;;13.19;100.00;101212.56;4980507;28;20030;-76
2023/08/13 04:16:27;;;;;;;30.47;12.13;;;;;;;13.24;100.00;101210.22;4981883;28;20416;-77
2023/08/13 04:18:53;;;;;;;41.20;12.93;;;;;;;13.21;100.00;101207.06;4966857;28;20066;-77
2023/08/13 04:21:20;;;;;;;26.27;12.23;;;;;;;13.27;100.00;101215.31;4967457;28;20034;-77
2023/08/13 04:23:46;;;;;;;34.37;13.70;;;;;;;13.34;100.00;101217.28;4984450;28;20922;-76
2023/08/13 04:26:11;;;;;;;28.17;13.47;;;;;;;13.31;100.00;101210.41;4970548;28;20162;-77
2023/08/13 04:28:36;;;;;;;31.30;12.40;;;;;;;13.37;100.00;101220.47;4999379;28;20501;-78
2023/08/13 04:31:02;;;;;;;30.30;12.93;;;;;;;13.43;100.00;101213.59;4967902;28;20105;-77
2023/08/13 04:33:30;;;;;;;28.50;11.02;;;;;;;13.44;100.00;101210.75;4966746;28;20042;-77
2023/08/13 04:35:56;;;;;;;23.20;10.95;;;;;;;13.47;100.00;101218.44;4984179;28;20014;-78
2023/08/13 04:38:25;;;;;;;24.40;11.43;;;;;;;13.45;100.00;101209.72;4982961;28;20398;-77
2023/08/13 04:40:51;;;;;;;22.10;10.87;;;;;;;13.50;100.00;101212.72;4949427;28;20153;-77
2023/08/13 04:43:17;;;;;;;;;;;;;;;13.55;100.00;101219.44;4982026;28;20026;-76
2023/08/13 04:45:46;;;;;;;;;;;;;;;13.59;100.00;101215.41;4968572;28;19921;-78
2023/08/13 04:48:16;;;;;;;22.42;10.15;;;;;;;13.62;100.00;101204.34;4968302;28;19972;-77
2023/08/13 04:50:41;;;;;;;22.90;9.73;;;;;;;13.71;100.00;101208.66;4964678;28;20462;-78
2023/08/13 04:53:07;;;;;;;23.53;9.70;;;;;;;13.71;100.00;101196.09;4950361;28;20058;-78
2023/08/13 04:55:32;;;;;;;30.83;10.03;;;;;;;13.83;100.00;101196.56;4981689;28;20091;-78
2023/08/13 04:57:58;;;;;;;21.17;8.82;;;;;;;13.99;100.00;101190.28;4967006;28;20490;-78
2023/08/13 05:00:23;;;;;;;24.50;9.43;;;;;;;14.26;100.00;101201.59;4966958;28;20042;-76
2023/08/13 05:02:50;;;;;;;19.90;7.78;;;;;;;14.64;100.00;101205.25;4953774;28;20077;-78
2023/08/13 05:05:15;;;;;;;18.00;8.80;;;;;;;14.53;100.00;101186.84;4978684;28;20324;-77
2023/08/13 05:07:41;;;;;;;17.20;7.60;;;;;;;14.69;100.00;101181.38;4954487;28;20026;-77
2023/08/13 05:10:07;;;;;;;20.27;7.47;;;;;;;14.71;100.00;101173.16;4956028;28;20050;-78
2023/08/13 05:12:32;;;;;;;15.27;6.55;;;;;;;14.90;100.00;101158.38;4953310;28;20031;-79
2023/08/13 05:14:59;;;;;;;16.90;6.00;;;;;;;15.26;100.00;101155.03;4971855;28;20038;-78
2023/08/13 05:17:25;;;;;;;22.05;6.15;;;;;;;15.70;100.00;101141.63;4986226;28;20031;-78
2023/08/13 05:19:50;;;;;;;12.33;5.47;;;;;;;15.77;100.00;101128.25;4987589;28;20038;-78
2023/08/13 05:22:16;;;;;;;12.88;4.65;;;;;;;16.13;100.00;101127.44;4957144;28;20640;-78
2023/08/13 05:24:42;;;;;;;13.70;5.90;;;;;;;16.66;100.00;101126.13;4956022;28;20058;-78
2023/08/13 05:27:08;;;;;;;15.95;6.25;;;;;;;17.11;100.00;101117.81;4955044;28;20030;-77
2023/08/13 05:29:33;;;;;;;11.05;5.07;;;;;;;17.41;100.00;101101.41;4970283;28;20053;-76
2023/08/13 05:31:59;;;;;;;11.40;4.77;;;;;;;17.80;100.00;101106.16;4971369;28;20090;-77
2023/08/13 05:34:24;;;;;;;15.27;4.83;;;;;;;17.56;100.00;101087.78;4986210;28;20065;-78
2023/08/13 05:36:49;;;;;;;10.03;4.03;;;;;;;17.56;100.00;101091.31;4955295;28;20300;-78
2023/08/13 05:39:15;;;;;;;12.00;4.47;;;;;;;17.56;100.00;101083.22;4971313;28;20037;-78
2023/08/13 05:41:40;;;;;;;7.43;3.60;;;;;;;18.22;100.00;101087.22;4953214;28;20027;-79
2023/08/13 05:44:06;;;;;;;7.90;3.80;;;;;;;18.67;100.00;101082.06;4970152;28;20128;-79
2023/08/13 05:46:32;;;;;;;17.80;3.73;;;;;;;19.18;100.00;101040.84;4952753;28;20030;-79
2023/08/13 05:48:57;;;;;;;;;;;;;;;19.60;100.00;100987.16;4970718;28;20035;-78
2023/08/13 05:51:23;;;;;;;8.07;3.78;;;;;;;19.38;100.00;100952.25;4969297;28;19960;-78
2023/08/13 05:53:48;;;;;;;11.52;3.95;;;;;;;19.64;100.00;100945.03;4969687;28;20524;-77
2023/08/13 05:56:14;;;;;;;6.57;3.43;;;;;;;20.52;100.00;100889.94;4986155;28;20034;-76
2023/08/13 05:58:39;;;;;;;7.90;3.50;;;;;;;19.42;100.00;100736.09;4988063;28;20038;-80
2023/08/13 06:01:07;;;;;;;6.00;3.50;;;;;;;18.95;100.00;100819.47;4987202;28;20436;-79
2023/08/13 06:03:33;;;;;;;12.25;4.30;;;;;;;18.99;100.00;100847.75;4969025;28;20141;-79
2023/08/13 06:05:58;;;;;;;12.50;3.87;;;;;;;19.09;100.00;100837.28;4968396;28;20146;-79
2023/08/13 06:08:24;;;;;;;13.70;4.03;;;;;;;19.30;100.00;100836.13;4959433;28;20490;-77
2023/08/13 06:10:49;;;;;;;11.67;3.43;;;;;;;19.77;100.00;100768.91;4959018;28;20022;-78
2023/08/13 06:13:14;;;;;;;11.47;3.30;;;;;;;19.75;100.00;100681.63;4970278;28;20380;-79
2023/08/13 06:15:40;;;;;;;16.00;3.07;;;;;;;19.40;100.00;100663.19;4961013;28;20031;-80
2023/08/13 06:18:05;;;;;;;8.40;3.30;;;;;;;18.62;100.00;100643.84;4966810;28;20050;-80
2023/08/13 06:20:31;;;;;;;10.48;3.60;;;;;;;17.86;100.00;100786.72;4971070;28;20026;-79
2023/08/13 06:22:57;;;;;;;9.20;4.13;;;;;;;18.13;100.00;100917.19;4963957;28;20066;-78
2023/08/13 06:25:23;;;;;;;8.82;3.45;;;;;;;17.64;100.00;100950.75;4953996;28;20228;-78
2023/08/13 06:27:48;;;;;;;12.75;3.42;;;;;;;17.54;100.00;100974.63;4948189;28;20034;-77
2023/08/13 06:30:14;;;;;;;10.30;3.33;;;;;;;18.12;100.00;101031.72;4982014;28;20037;-78
2023/08/13 06:32:39;;;;;;;10.43;3.50;;;;;;;17.64;100.00;100950.75;4955487;28;20034;-79
2023/08/13 06:35:05;;;;;;;11.30;4.33;;;;;;;17.52;100.00;101009.91;4963462;28;20389;-79
2023/08/13 06:37:30;;;;;;;10.85;3.17;;;;;;;17.84;100.00;101014.78;4973632;28;20081;-79
2023/08/13 06:39:56;;;;;;;12.30;3.27;;;;;;;17.57;100.00;100965.28;4975598;28;20054;-79
2023/08/13 06:42:21;;;;;;;14.07;3.53;;;;;;;17.83;100.00;101008.56;4958073;28;20323;-79
2023/08/13 06:44:47;;;;;;;14.48;3.28;;;;;;;18.22;100.00;101035.88;4954776;28;20053;-78
2023/08/13 06:47:13;;;;;;;16.53;3.30;;;;;;;18.43;100.00;100941.06;4958121;28;20055;-80
2023/08/13 06:49:38;;;;;;;10.13;2.93;;;;;;;18.46;100.00;101018.22;4981754;28;20038;-80
2023/08/13 06:52:04;;;;;;;10.98;3.58;;;;;;;18.40;100.00;100960.41;4957620;28;20280;-78
2023/08/13 06:54:29;;;;;;;10.02;3.72;;;;;;;18.26;100.00;100937.13;4967598;28;20038;-80
2023/08/13 06:56:55;;;;;;;11.53;3.73;;;;;;;18.78;100.00;101043.63;4981265;28;20065;-80
2023/08/13 06:59:20;;;;;;;11.33;3.30;;;;;;;20.09;100.00;100885.38;4975321;28;20026;-80
2023/08/13 07:01:45;;;;;;;11.80;3.27;;;;;;;20.16;100.00;100617.81;4976227;28;20046;-80
2023/08/13 07:04:11;;;;;;;9.10;2.90;;;;;;;21.33;100.00;100676.16;4992389;28;20033;-78
2023/08/13 07:06:36;;;;;;;9.10;3.07;;;;;;;20.80;100.00;100482.50;4999640;23;20054;-75
2023/08/13 07:09:03;;;;;;;11.53;3.57;;;;;;;20.16;100.00;100527.53;5014181;28;20292;-77
2023/08/13 07:11:32;;;;;;;11.30;2.72;;;;;;;19.55;100.00;100578.06;5005357;28;20065;-77
2023/08/13 07:13:57;;;;;;;13.80;3.22;;;;;;;20.01;100.00;100617.38;5021778;28;20026;-77
2023/08/13 07:16:23;;;;;;;13.87;3.23;;;;;;;20.07;100.00;100627.31;5006750;28;20550;-77
2023/08/13 07:18:48;;;;;;;12.47;3.63;;;;;;;20.58;100.00;100603.44;5005281;28;20360;-77
2023/08/13 07:21:13;;;;;;;13.60;2.60;;;;;;;20.71;100.00;100435.06;5006569;28;20045;-77
2023/08/13 07:23:39;;;;;;;16.83;4.80;;;;;;;20.02;100.00;100545.88;5021426;28;20030;-77
2023/08/13 07:26:05;;;;;;;14.97;4.07;;;;;;;20.01;100.00;100568.59;5005661;28;20077;-77
2023/08/13 07:28:34;;;;;;;11.48;3.00;;;;;;;19.80;100.00;100569.91;5021150;28;20300;-77
2023/08/13 07:31:03;;;;;;;10.00;2.70;;;;;;;20.06;100.00;100720.47;5005585;28;20038;-77
2023/08/13 07:33:30;;;;;;;7.18;3.33;;;;;;;20.44;100.00;100890.25;5004319;28;20112;-77
2023/08/13 07:35:55;;;;;;;9.52;4.07;;;;;;;20.07;100.00;100715.91;4981872;28;20044;-77
2023/08/13 07:38:20;;;;;;;16.10;3.40;;;;;;;19.59;100.00;100665.94;5006235;28;20030;-77
2023/08/13 07:40:46;;;;;;;14.30;3.87;;;;;;;19.81;100.00;100858.72;5020667;28;20029;-77
2023/08/13 07:43:11;;;;;;;12.03;3.40;;;;;;;20.31;100.00;100793.59;5020460;28;20533;-77
2023/08/13 07:45:36;;;;;;;11.07;3.60;;;;;;;19.77;100.00;100684.13;5004087;28;20371;-77
2023/08/13 07:48:02;;;;;;;20.98;3.30;;;;;;;20.01;100.00;100872.91;5004688;28;20031;-77
2023/08/13 07:50:29;;;;;;;12.77;3.57;;;;;;;20.34;100.00;100808.59;5021018;28;20042;-77
2023/08/13 07:52:55;;;;;;;11.43;2.90;;;;;;;20.73;100.00;100860.75;5006019;28;20284;-77
2023/08/13 07:55:20;;;;;;;19.10;3.57;;;;;;;21.21;100.00;100800.19;5006525;28;20057;-77
2023/08/13 07:57:45;;;;;;;12.35;2.97;;;;;;;20.91;100.00;100901.44;5007248;28;20041;-77
2023/08/13 08:00:11;;;;;;;12.83;3.30;;;;;;;20.81;100.00;100732.91;5007930;28;20638;-77
2023/08/13 08:02:43;;;;;;;10.05;3.38;;;;;;;21.85;100.00;100850.19;5008568;28;20030;-77
2023/08/13 08:05:10;;;;;;;11.80;4.15;;;;;;;22.38;100.00;100810.34;5026616;28;20085;-78
2023/08/13 08:07:35;;;;;;;10.15;3.05;;;;;;;22.32;100.00;100550.25;5011387;28;20108;-77
2023/08/13 08:10:01;;;;;;;12.68;2.75;;;;;;;22.45;100.00;100606.22;5008956;28;20029;-78
2023/08/13 08:12:27;;;;;;;11.27;2.97;;;;;;;22.09;100.00;100543.00;5024544;28;20072;-78
2023/08/13 08:14:52;;;;;;;12.65;3.25;;;;;;;22.33;100.00;100318.00;5011305;28;20049;-78
2023/08/13 08:17:17;;;;;;;8.93;2.73;;;;;;;23.09;100.00;100568.66;5009646;28;20034;-78
2023/08/13 08:19:43;;;;;;;11.02;2.88;;;;;;;23.40;100.00;100525.50;5027264;28;20076;-78
2023/08/13 08:22:08;;;;;;;14.27;3.17;;;;;;;22.51;100.00;100143.66;5010719;28;20030;-77
2023/08/13 08:24:33;;;;;;;16.60;3.40;;;;;;;22.79;100.00;100325.97;5007886;28;20314;-77
2023/08/13 08:26:59;;;;;;;14.00;3.50;;;;;;;22.41;100.00;100488.13;5005589;28;20030;-77
2023/08/13 08:29:24;;;;;;;13.20;3.58;;;;;;;22.15;100.00;100319.13;5004718;28;20382;-77
2023/08/13 08:31:51;;;;;;;8.70;3.65;;;;;;;21.84;100.00;100274.31;5005618;28;20022;-77
2023/08/13 08:34:16;;;;;;;11.73;3.45;;;;;;;21.64;100.00;100525.56;5021119;28;20276;-77
2023/08/13 08:36:41;;;;;;;11.30;2.83;;;;;;;22.36;100.00;100536.97;4989433;28;20477;-77
2023/08/13 08:39:08;;;;;;;11.50;3.07;;;;;;;22.13;100.00;100311.19;5008720;28;20499;-77
2023/08/13 08:41:36;;;;;;;12.45;3.70;;;;;;;21.82;100.00;100268.31;5024760;28;20808;-77
2023/08/13 08:44:01;;;;;;;17.10;3.35;;;;;;;22.33;100.00;100321.56;5007685;28;20084;-77
2023/08/13 08:46:27;;;;;;;10.13;2.63;;;;;;;22.52;100.00;100402.88;5007586;28;20021;-77
2023/08/13 08:48:53;;;;;;;11.70;2.63;;;;;;;22.46;100.00;100461.00;4990989;28;20293;-77
2023/08/13 08:51:20;;;;;;;;;;;;;;;23.62;100.00;100399.31;5009082;28;20029;-77
2023/08/13 08:53:49;;;;;;;9.05;2.70;;;;;;;23.08;100.00;100092.47;4990883;28;20442;-77
2023/08/13 08:56:14;;;;;;;10.40;2.97;;;;;;;22.75;100.00;99953.69;5008503;28;20033;-77
2023/08/13 08:58:39;;;;;;;12.30;3.70;;;;;;;22.64;100.00;100098.06;5008824;28;20045;-77
2023/08/13 09:01:05;;;;;;;9.40;3.37;;;;;;;23.76;100.00;100202.47;5007584;28;20491;-77
2023/08/13 09:03:30;;;;;;;14.10;4.03;;;;;;;23.16;100.00;99950.41;5007263;28;20599;-77
2023/08/13 09:05:56;;;;;;;10.73;3.15;;;;;;;24.34;100.00;100059.81;5007379;28;20032;-77
2023/08/13 09:08:21;;;;;;;10.93;2.95;;;;;;;23.35;100.00;99771.84;5007575;28;20046;-77
2023/08/13 09:10:47;;;;;;;14.90;3.00;;;;;;;23.23;100.00;99961.06;5007632;28;20116;-77
2023/08/13 09:13:12;;;;;;;10.38;3.13;;;;;;;23.17;100.00;99996.41;5009643;28;20367;-77
2023/08/13 09:15:47;;;;;;;10.23;3.22;;;;;;;23.86;100.00;100130.00;5007518;28;20045;-77
2023/08/13 09:18:13;;;;;;;10.55;2.72;;;;;;;23.05;100.00;99965.06;5023296;28;20422;-77
2023/08/13 09:20:46;;;;;;;13.13;2.90;;;;;;;22.33;100.00;99905.50;5007013;28;20022;-77
2023/08/13 09:23:24;;;;;;;9.38;2.83;;;;;;;22.29;100.00;100081.16;5023403;28;20110;-77
2023/08/13 09:25:55;;;;;;;10.57;3.20;;;;;;;21.91;100.00;100101.91;5006217;28;20045;-77
2023/08/13 09:28:20;;;;;;;10.38;3.10;;;;;;;21.56;100.00;100223.63;5007751;28;20038;-76
2023/08/13 09:30:46;;;;;;;12.40;3.33;;;;;;;22.16;100.00;100355.28;5006411;28;20026;-77
2023/08/13 09:33:14;;;;;;;8.65;2.90;;;;;;;22.49;100.00;100286.41;5022735;28;20036;-77
2023/08/13 09:35:41;;;;;;;9.63;3.15;;;;;;;24.17;100.00;100485.47;5005808;28;20711;-76
2023/08/13 09:38:06;;;;;;;7.47;2.65;;;;;;;25.10;100.00;100329.41;5023063;28;20041;-77
2023/08/13 09:40:32;;;;;;;8.83;2.73;;;;;;;25.01;100.00;99855.88;5006456;28;20036;-77
2023/08/13 09:42:58;;;;;;;12.35;2.92;;;;;;;25.04;97.48;99740.63;5007560;28;20018;-77
2023/08/13 09:45:27;;;;;;;9.73;2.90;;;;;;;24.95;95.40;99623.00;5007832;28;20451;-76
2023/08/13 09:47:55;;;;;;;10.10;3.05;;;;;;;25.34;92.85;99574.94;5005632;28;20045;-77
2023/08/13 09:50:21;;;;;;;11.52;2.75;;;;;;;23.93;93.41;99351.03;5022774;28;20392;-76
2023/08/13 09:52:47;;;;;;;12.02;3.35;;;;;;;23.86;96.28;99591.19;5006068;28;20121;-77
2023/08/13 09:55:15;;;;;;;;;;;;;;;23.99;97.41;99750.59;5006439;28;20471;-76
2023/08/13 09:57:42;;;;;;;10.68;2.78;;;;;;;23.71;94.86;99454.97;5005497;28;19964;-76
2023/08/13 10:00:09;;;;;;;8.23;3.08;;;;;;;23.64;99.73;99811.34;5022602;28;20210;-76
2023/08/13 10:02:42;;;;;;;7.40;2.70;;;;;;;23.73;99.40;99869.66;5022022;28;20033;-76
2023/08/13 10:05:08;;;;;;;7.75;2.67;;;;;;;23.68;99.42;99783.28;5006774;28;20088;-76
2023/08/13 10:07:35;;;;;;;10.98;3.00;;;;;;;24.15;96.51;99768.53;5007287;28;20045;-76
2023/08/13 10:10:04;;;;;;;7.07;2.60;;;;;;;24.33;97.54;99887.16;5022606;28;20057;-76
2023/08/13 10:12:30;;;;;;;8.75;2.60;;;;;;;24.68;96.21;99836.38;5006893;28;20432;-76
2023/08/13 10:14:57;;;;;;;11.02;3.15;;;;;;;25.25;95.30;99938.00;5009049;28;20408;-76
2023/08/13 10:17:26;;;;;;;8.75;2.58;;;;;;;24.73;91.31;99527.94;5006630;28;20029;-76
2023/08/13 10:19:54;;;;;;;4.72;2.13;;;;;;;24.18;90.00;99306.34;5005444;28;20042;-76
2023/08/13 10:22:40;;;;;;;5.43;2.13;;;;;;;24.03;94.93;99721.69;5005494;28;20026;-76
2023/08/13 10:25:07;;;;;;;8.43;2.50;;;;;;;24.25;97.00;99897.78;5013978;28;20042;-76
2023/08/13 10:27:43;;;;;;;9.15;2.40;;;;;;;24.70;95.96;99945.22;5003301;28;20156;-76
2023/08/13 10:30:14;;;;;;;8.68;2.15;;;;;;;23.20;95.43;99513.16;5005359;28;20497;-76
2023/08/13 10:32:54;;;;;;;7.28;2.90;;;;;;;22.88;100.00;99791.84;5005235;28;20109;-76
2023/08/13 10:35:29;;;;;;;7.57;2.97;;;;;;;23.22;100.00;100120.06;5021529;28;20042;-76
2023/08/13 10:37:59;;;;;;;6.93;1.50;;;;;;;23.84;98.42;99846.81;5002311;28;20083;-76
2023/08/13 10:40:26;;;;;;;6.30;2.17;;;;;;;25.22;93.50;99920.25;4988739;28;20037;-76
2023/08/13 10:42:54;;;;;;;9.07;1.70;;;;;;;24.67;93.23;99774.66;5004813;28;20018;-76
2023/08/13 10:45:22;;;;;;;11.48;2.25;;;;;;;23.37;95.13;99581.75;5005008;28;20038;-75
2023/08/13 10:48:08;;;;;;;5.47;1.50;;;;;;;23.33;99.55;99903.91;5005842;28;20028;-76
2023/08/13 10:50:39;;;;;;;7.88;1.70;;;;;;;24.36;93.47;99785.66;5021639;28;20045;-76
2023/08/13 10:53:13;;;;;;;4.03;1.95;;;;;;;25.00;91.84;99818.75;5004755;28;20046;-76
2023/08/13 10:55:46;;;;;;;5.85;1.77;;;;;;;24.52;94.27;99853.88;5020445;28;20077;-76
2023/08/13 10:58:30;;;;;;;2.58;1.40;;;;;;;24.40;90.09;99556.81;5006573;28;20159;-76
2023/08/13 11:01:10;;;;;;;4.50;1.67;;;;;;;25.64;91.13;99970.06;5019521;28;20030;-76
2023/08/13 11:03:44;;;;;;;3.13;1.27;;;;;;;23.57;89.10;99231.38;5005825;28;20054;-75
2023/08/13 11:06:09;;;;;;;2.85;1.23;;;;;;;24.09;89.59;99518.84;5005713;28;20038;-75
2023/08/13 11:08:37;;;;;;;6.93;1.45;;;;;;;23.52;91.33;99480.09;5020889;28;20028;-76
2023/08/13 11:11:03;;;;;;;3.38;1.45;;;;;;;24.59;94.53;100023.56;5006155;28;20408;-75